Time;durP1;ratioP1;P1;durP2;ratioP2;P2;SDS_P1;SDS_P2;PMS_P1;PMS_P2;Temp;Humidity;BMP_temperature;BMP_pressure;BME280_temperature;BME280_humidity;BME280_pressure;Samples;Min_cycle;Max_cycle;Signal;HPM_P1;HPM_P2
2023/01/02 00:01:38;;;;;;;4.50;1.90;;;;;;;;;;4985845;28;94947;-65
2023/01/02 00:04:04;;;;;;;;;;;;;;;;;;4984262;28;92034;-66
2023/01/02 00:06:34;;;;;;;4.47;2.03;;;;;;;;;;4985007;28;116449;-66
2023/01/02 00:09:01;;;;;;;4.22;1.85;;;;;;;;;;4984406;28;92454;-65
2023/01/02 00:11:28;;;;;;;4.97;1.92;;;;;;;;;;4985319;28;92684;-65
2023/01/02 00:13:54;;;;;;;4.78;1.80;;;;;;;;;;4993555;28;92086;-65
2023/01/02 00:16:21;;;;;;;4.72;1.98;;;;;;;;;;4984147;28;92471;-65
2023/01/02 00:18:47;;;;;;;4.63;1.90;;;;;;;;;;4984491;28;91938;-64
2023/01/02 00:21:13;;;;;;;4.28;1.70;;;;;;;;;;4983930;28;92070;-65
2023/01/02 00:23:40;;;;;;;4.18;1.90;;;;;;;;;;4986608;28;92746;-65
2023/01/02 00:26:06;;;;;;;4.07;1.80;;;;;;;;;;4982453;28;94478;-65
2023/01/02 00:28:34;;;;;;;4.65;1.70;;;;;;;;;;4983819;28;94790;-64
2023/01/02 00:31:04;;;;;;;4.32;1.85;;;;;;;;;;4998788;28;93020;-66
2023/01/02 00:33:31;;;;;;;4.35;1.70;;;;;;;;;;4984106;28;92034;-64
2023/01/02 00:35:57;;;;;;;5.50;2.13;;;;;;;;;;4983914;28;92039;-65
2023/01/02 00:38:23;;;;;;;3.63;1.70;;;;;;;;;;4982143;28;92776;-65
2023/01/02 00:40:50;;;;;;;3.80;1.90;;;;;;;;;;4999115;28;92318;-65
2023/01/02 00:43:16;;;;;;;4.18;1.67;;;;;;;;;;4984260;28;92790;-65
2023/01/02 00:45:43;;;;;;;4.38;1.80;;;;;;;;;;4986348;28;92964;-65
2023/01/02 00:48:09;;;;;;;4.70;1.92;;;;;;;;;;4983722;28;92549;-64
2023/01/02 00:50:35;;;;;;;3.47;1.55;;;;;;;;;;4981716;28;95160;-66
2023/01/02 00:53:02;;;;;;;4.22;1.80;;;;;;;;;;4984015;28;92560;-64
2023/01/02 00:55:28;;;;;;;3.67;1.75;;;;;;;;;;4983731;28;92732;-65
2023/01/02 00:57:54;;;;;;;4.22;1.80;;;;;;;;;;4983045;28;92739;-65
2023/01/02 01:00:21;;;;;;;4.70;1.90;;;;;;;;;;4981557;28;92676;-65
2023/01/02 01:02:53;;;;;;;3.35;1.60;;;;;;;;;;4982877;28;92812;-65
2023/01/02 01:05:19;;;;;;;4.20;1.63;;;;;;;;;;4983279;28;92839;-65
2023/01/02 01:07:46;;;;;;;4.45;1.83;;;;;;;;;;4986231;28;91938;-65
2023/01/02 01:10:12;;;;;;;3.95;1.70;;;;;;;;;;4983360;28;92760;-64
2023/01/02 01:12:39;;;;;;;4.05;1.60;;;;;;;;;;4993040;28;92375;-65
2023/01/02 01:15:05;;;;;;;3.58;1.70;;;;;;;;;;4981977;28;94907;-65
2023/01/02 01:17:32;;;;;;;3.17;1.48;;;;;;;;;;4982849;28;92462;-65
2023/01/02 01:19:58;;;;;;;5.38;1.90;;;;;;;;;;4982108;28;92602;-63
2023/01/02 01:22:24;;;;;;;5.38;2.08;;;;;;;;;;4982788;28;92927;-64
2023/01/02 01:24:51;;;;;;;3.35;1.73;;;;;;;;;;4982869;28;92420;-64
2023/01/02 01:27:17;;;;;;;4.90;1.77;;;;;;;;;;4985633;28;92711;-63
2023/01/02 01:29:44;;;;;;;3.30;1.52;;;;;;;;;;4983045;28;92793;-64
2023/01/02 01:32:10;;;;;;;4.65;1.60;;;;;;;;;;4983227;28;91572;-64
2023/01/02 01:34:36;;;;;;;3.90;1.80;;;;;;;;;;4983344;28;92730;-64
2023/01/02 01:37:03;;;;;;;4.47;1.73;;;;;;;;;;4975567;28;93169;-64
2023/01/02 01:39:29;;;;;;;3.85;1.83;;;;;;;;;;4981561;28;94788;-65
2023/01/02 01:41:59;;;;;;;3.95;1.67;;;;;;;;;;4981810;28;95645;-65
2023/01/02 01:44:46;;;;;;;5.18;1.85;;;;;;;;;;4983061;28;92667;-65
2023/01/02 01:47:30;;;;;;;6.40;1.88;;;;;;;;;;4982781;28;92053;-64
2023/01/02 01:50:03;;;;;;;3.70;1.63;;;;;;;;;;4985977;28;92551;-65
2023/01/02 01:52:32;;;;;;;3.33;1.60;;;;;;;;;;4982729;28;92192;-63
2023/01/02 01:55:05;;;;;;;5.10;1.83;;;;;;;;;;4983231;28;92673;-63
2023/01/02 01:57:36;;;;;;;5.03;1.90;;;;;;;;;;4983111;28;92044;-65
2023/01/02 02:00:03;;;;;;;4.43;1.70;;;;;;;;;;4982835;28;92399;-64
2023/01/02 02:02:32;;;;;;;5.20;1.75;;;;;;;;;;4982095;28;92183;-65
2023/01/02 02:05:00;;;;;;;4.03;1.80;;;;;;;;;;4980594;28;95334;-65
2023/01/02 02:07:27;;;;;;;3.00;1.70;;;;;;;;;;4982489;28;92413;-64
2023/01/02 02:09:58;;;;;;;4.50;1.70;;;;;;;;;;4982009;28;92292;-64
2023/01/02 02:12:25;;;;;;;4.22;2.05;;;;;;;;;;4992409;28;92755;-64
2023/01/02 02:14:53;;;;;;;4.55;1.90;;;;;;;;;;4982476;28;92736;-66
2023/01/02 02:17:23;;;;;;;4.80;1.90;;;;;;;;;;4996782;28;93253;-65
2023/01/02 02:20:08;;;;;;;3.17;1.48;;;;;;;;;;4982395;28;92409;-65
2023/01/02 02:22:41;;;;;;;3.20;1.80;;;;;;;;;;4982186;28;92492;-65
2023/01/02 02:25:26;;;;;;;5.38;1.85;;;;;;;;;;4982552;28;92557;-64
2023/01/02 02:28:11;;;;;;;3.53;1.80;;;;;;;;;;4982078;28;92573;-64
2023/01/02 02:30:51;;;;;;;3.53;1.70;;;;;;;;;;4980881;28;94436;-64
2023/01/02 02:33:26;;;;;;;4.13;1.80;;;;;;;;;;4982104;28;93345;-65
2023/01/02 02:35:52;;;;;;;4.35;2.05;;;;;;;;;;4985371;28;91977;-64
2023/01/02 02:38:24;;;;;;;4.07;1.90;;;;;;;;;;4981674;28;92746;-65
2023/01/02 02:40:50;;;;;;;3.78;1.70;;;;;;;;;;4982286;28;92108;-64
2023/01/02 02:43:35;;;;;;;4.65;1.70;;;;;;;;;;4982137;28;92472;-64
2023/01/02 02:46:07;;;;;;;4.43;1.65;;;;;;;;;;4982026;28;92918;-65
2023/01/02 02:48:46;;;;;;;4.18;1.60;;;;;;;;;;4968881;28;91340;-65
2023/01/02 02:51:15;;;;;;;3.17;1.50;;;;;;;;;;4982007;28;92201;-64
2023/01/02 02:53:43;;;;;;;4.32;1.63;;;;;;;;;;4979668;28;92712;-65
2023/01/02 02:56:11;;;;;;;4.28;1.98;;;;;;;;;;4983660;28;94843;-64
2023/01/02 02:58:37;;;;;;;;;;;;;;;;;;4988637;28;95431;-65
2023/01/02 03:01:11;;;;;;;4.38;1.58;;;;;;;;;;4985190;28;116144;-63
2023/01/02 03:03:38;;;;;;;4.47;1.95;;;;;;;;;;5000622;28;94219;-65
2023/01/02 03:06:20;;;;;;;5.25;2.10;;;;;;;;;;4984876;28;92309;-64
2023/01/02 03:08:54;;;;;;;4.47;1.90;;;;;;;;;;4985500;28;92413;-65
2023/01/02 03:11:24;;;;;;;3.10;1.50;;;;;;;;;;4987487;28;92805;-65
2023/01/02 03:14:00;;;;;;;3.85;1.73;;;;;;;;;;4985844;28;94183;-65
2023/01/02 03:16:28;;;;;;;3.42;1.60;;;;;;;;;;4985166;28;92003;-64
2023/01/02 03:19:01;;;;;;;5.38;2.00;;;;;;;;;;4987898;28;92378;-64
2023/01/02 03:21:33;;;;;;;3.08;1.70;;;;;;;;;;4974465;28;94761;-63
2023/01/02 03:24:03;;;;;;;4.57;1.85;;;;;;;;;;4985026;28;94811;-64
2023/01/02 03:26:30;;;;;;;5.38;1.63;;;;;;;;;;4984323;28;92929;-63
2023/01/02 03:29:00;;;;;;;4.93;1.80;;;;;;;;;;4983866;28;92337;-63
2023/01/02 03:31:27;;;;;;;4.40;1.70;;;;;;;;;;4984659;28;92530;-65
2023/01/02 03:33:58;;;;;;;4.43;1.70;;;;;;;;;;4984483;28;92748;-64
2023/01/02 03:36:27;;;;;;;4.47;1.95;;;;;;;;;;4984871;28;92133;-64
2023/01/02 03:38:59;;;;;;;4.93;1.80;;;;;;;;;;4985197;28;92344;-65
2023/01/02 03:41:31;;;;;;;4.22;1.95;;;;;;;;;;4987937;28;92777;-64
2023/01/02 03:43:59;;;;;;;4.00;1.75;;;;;;;;;;4984793;28;92516;-64
2023/01/02 03:46:28;;;;;;;4.40;1.85;;;;;;;;;;4982204;28;95911;-64
2023/01/02 03:48:58;;;;;;;4.22;1.70;;;;;;;;;;4984832;28;92061;-64
2023/01/02 03:51:24;;;;;;;3.72;1.50;;;;;;;;;;4984392;28;93227;-63
2023/01/02 03:53:51;;;;;;;4.28;1.60;;;;;;;;;;4984424;28;92865;-64
2023/01/02 03:56:40;;;;;;;4.50;1.75;;;;;;;;;;4980753;28;92012;-64
2023/01/02 03:59:25;;;;;;;5.25;1.95;;;;;;;;;;4974273;28;92382;-62
2023/01/02 04:01:51;;;;;;;3.85;1.85;;;;;;;;;;4984204;28;92822;-63
2023/01/02 04:04:21;;;;;;;5.75;1.85;;;;;;;;;;4987960;28;91677;-64
2023/01/02 04:06:50;;;;;;;3.75;1.77;;;;;;;;;;4983814;28;92732;-64
2023/01/02 04:09:18;;;;;;;3.35;1.70;;;;;;;;;;4984307;28;92460;-64
2023/01/02 04:11:46;;;;;;;4.05;1.95;;;;;;;;;;4986705;28;94697;-64
2023/01/02 04:14:37;;;;;;;5.25;1.90;;;;;;;;;;4984166;28;92174;-65
2023/01/02 04:17:07;;;;;;;4.18;1.52;;;;;;;;;;4983378;28;92117;-65
2023/01/02 04:19:35;;;;;;;4.05;1.90;;;;;;;;;;4984153;28;94246;-64
2023/01/02 04:22:06;;;;;;;4.28;1.90;;;;;;;;;;4983687;28;92266;-64
2023/01/02 04:24:34;;;;;;;4.45;1.83;;;;;;;;;;4984389;28;92479;-65
2023/01/02 04:27:04;;;;;;;4.68;1.90;;;;;;;;;;4985512;28;93003;-64
2023/01/02 04:29:30;;;;;;;4.70;1.60;;;;;;;;;;4984590;28;91581;-64
2023/01/02 04:31:57;;;;;;;4.38;1.88;;;;;;;;;;4983953;28;92131;-63
2023/01/02 04:34:25;;;;;;;4.13;1.85;;;;;;;;;;4982270;28;94590;-63
2023/01/02 04:36:51;;;;;;;4.57;2.08;;;;;;;;;;4982554;28;95006;-64
2023/01/02 04:39:19;;;;;;;4.20;1.63;;;;;;;;;;4983711;28;94918;-64
2023/01/02 04:41:45;;;;;;;4.88;2.03;;;;;;;;;;4983121;28;92700;-66
2023/01/02 04:44:11;;;;;;;4.25;1.70;;;;;;;;;;4984125;28;92460;-65
2023/01/02 04:46:38;;;;;;;2.55;1.40;;;;;;;;;;4983729;28;92455;-65
2023/01/02 04:49:04;;;;;;;4.03;1.80;;;;;;;;;;4986845;28;93022;-67
2023/01/02 04:51:30;;;;;;;4.45;1.70;;;;;;;;;;4983334;28;92488;-65
2023/01/02 04:53:57;;;;;;;3.97;1.80;;;;;;;;;;4984353;28;92376;-64
2023/01/02 04:56:23;;;;;;;5.60;1.83;;;;;;;;;;4983289;28;92247;-64
2023/01/02 04:58:50;;;;;;;4.50;2.08;;;;;;;;;;4983280;28;92432;-65
2023/01/02 05:01:17;;;;;;;3.65;1.80;;;;;;;;;;4981189;28;96196;-63
2023/01/02 05:03:45;;;;;;;4.45;1.85;;;;;;;;;;4983160;28;91968;-62
2023/01/02 05:06:12;;;;;;;3.83;1.70;;;;;;;;;;4983343;28;92416;-66
2023/01/02 05:08:38;;;;;;;4.20;1.77;;;;;;;;;;4983060;28;92824;-64
2023/01/02 05:11:06;;;;;;;4.20;1.73;;;;;;;;;;4986237;28;92335;-64
2023/01/02 05:13:32;;;;;;;4.65;1.77;;;;;;;;;;4985410;28;93419;-65
2023/01/02 05:15:59;;;;;;;3.80;1.95;;;;;;;;;;4982961;28;92450;-65
2023/01/02 05:18:29;;;;;;;4.68;1.77;;;;;;;;;;4983000;28;91764;-64
2023/01/02 05:21:06;;;;;;;4.78;1.80;;;;;;;;;;4982809;28;93010;-64
2023/01/02 05:23:48;;;;;;;3.40;1.70;;;;;;;;;;4983173;28;91992;-65
2023/01/02 05:26:15;;;;;;;4.10;1.83;;;;;;;;;;4981388;28;94877;-65
2023/01/02 05:28:41;;;;;;;4.07;1.73;;;;;;;;;;4982992;28;92839;-64
2023/01/02 05:31:08;;;;;;;3.70;1.70;;;;;;;;;;4986264;28;92337;-65
2023/01/02 05:33:35;;;;;;;5.50;1.67;;;;;;;;;;4982709;28;93722;-65
2023/01/02 05:36:03;;;;;;;3.97;1.90;;;;;;;;;;4982913;28;92731;-64
2023/01/02 05:38:30;;;;;;;3.55;1.65;;;;;;;;;;4982849;28;92450;-65
2023/01/02 05:41:00;;;;;;;3.08;1.40;;;;;;;;;;4982350;28;92759;-64
2023/01/02 05:43:28;;;;;;;4.95;1.73;;;;;;;;;;4983489;28;91499;-64
2023/01/02 05:45:54;;;;;;;4.97;1.90;;;;;;;;;;4982622;28;92083;-64
2023/01/02 05:48:22;;;;;;;3.13;1.52;;;;;;;;;;4982289;28;92867;-66
2023/01/02 05:50:48;;;;;;;5.35;1.73;;;;;;;;;;4971693;28;94635;-65
2023/01/02 05:53:15;;;;;;;3.47;1.70;;;;;;;;;;4985288;28;94858;-64
2023/01/02 05:55:42;;;;;;;4.72;1.90;;;;;;;;;;4982564;28;92068;-63
2023/01/02 05:58:11;;;;;;;3.70;1.70;;;;;;;;;;4982549;28;92621;-65
2023/01/02 06:00:37;;;;;;;4.53;1.83;;;;;;;;;;4982156;28;92731;-65
2023/01/02 06:03:03;;;;;;;4.20;2.00;;;;;;;;;;4982658;28;92410;-63
2023/01/02 06:05:30;;;;;;;5.53;1.88;;;;;;;;;;4997849;28;94629;-64
2023/01/02 06:07:56;;;;;;;3.85;1.63;;;;;;;;;;4982916;28;91940;-65
2023/01/02 06:10:23;;;;;;;3.10;1.60;;;;;;;;;;4982497;28;92336;-65
2023/01/02 06:12:49;;;;;;;5.03;1.95;;;;;;;;;;4986541;28;92444;-64
2023/01/02 06:15:16;;;;;;;4.70;1.58;;;;;;;;;;4983754;28;95454;-65
2023/01/02 06:17:42;;;;;;;5.28;1.60;;;;;;;;;;4982061;28;94276;-65
2023/01/02 06:20:09;;;;;;;3.30;1.50;;;;;;;;;;4982452;28;93151;-66
2023/01/02 06:22:35;;;;;;;3.30;1.60;;;;;;;;;;4981706;28;92242;-64
2023/01/02 06:25:01;;;;;;;4.30;1.67;;;;;;;;;;4982603;28;92344;-65
2023/01/02 06:27:30;;;;;;;3.22;1.52;;;;;;;;;;4981645;28;92681;-65
2023/01/02 06:29:56;;;;;;;4.45;1.58;;;;;;;;;;4982527;28;92393;-65
2023/01/02 06:32:23;;;;;;;4.32;1.67;;;;;;;;;;4982477;28;92507;-65
2023/01/02 06:34:49;;;;;;;3.33;1.50;;;;;;;;;;4982025;28;92290;-65
2023/01/02 06:37:15;;;;;;;4.07;1.40;;;;;;;;;;4985293;28;92781;-65
2023/01/02 06:39:42;;;;;;;3.63;1.55;;;;;;;;;;4980542;28;95198;-65
2023/01/02 06:42:08;;;;;;;3.17;1.30;;;;;;;;;;4981997;28;92500;-65
2023/01/02 06:44:34;;;;;;;3.10;1.58;;;;;;;;;;4982342;28;92353;-65
2023/01/02 06:47:01;;;;;;;3.72;1.60;;;;;;;;;;4981368;28;93042;-65
2023/01/02 06:49:27;;;;;;;3.17;1.30;;;;;;;;;;4982562;28;92524;-65
2023/01/02 06:51:54;;;;;;;4.20;1.60;;;;;;;;;;4981679;28;93124;-65
2023/01/02 06:54:20;;;;;;;2.88;1.27;;;;;;;;;;4981860;28;92736;-64
2023/01/02 06:56:46;;;;;;;2.85;1.33;;;;;;;;;;4982456;28;91572;-64
2023/01/02 06:59:13;;;;;;;1.75;1.13;;;;;;;;;;4984995;28;92524;-65
2023/01/02 07:01:39;;;;;;;2.45;1.20;;;;;;;;;;4981394;28;92376;-65
2023/01/02 07:04:06;;;;;;;2.53;1.50;;;;;;;;;;4995726;28;96842;-65
2023/01/02 07:06:33;;;;;;;3.85;1.45;;;;;;;;;;4981584;28;93129;-65
2023/01/02 07:08:59;;;;;;;3.38;1.35;;;;;;;;;;4981853;28;91965;-64
2023/01/02 07:11:26;;;;;;;1.80;1.20;;;;;;;;;;4984348;28;92617;-65
2023/01/02 07:13:53;;;;;;;2.95;1.58;;;;;;;;;;4982942;28;92729;-64
2023/01/02 07:16:20;;;;;;;3.72;1.40;;;;;;;;;;4981612;28;92036;-65
2023/01/02 07:18:46;;;;;;;2.80;1.42;;;;;;;;;;4981852;28;92771;-65
2023/01/02 07:21:13;;;;;;;1.98;1.30;;;;;;;;;;4985189;28;92660;-64
2023/01/02 07:23:41;;;;;;;3.08;1.42;;;;;;;;;;4981665;28;92352;-67
2023/01/02 07:26:07;;;;;;;4.28;1.80;;;;;;;;;;4981491;28;92566;-66
2023/01/02 07:28:34;;;;;;;2.88;1.60;;;;;;;;;;4979919;28;94887;-65
2023/01/02 07:31:02;;;;;;;2.75;1.60;;;;;;;;;;4981461;28;94927;-66
2023/01/02 07:33:28;;;;;;;;;;;;;;;;;;4981780;28;92666;-65
2023/01/02 07:35:59;;;;;;;2.55;1.40;;;;;;;;;;4982732;28;92087;-65
2023/01/02 07:38:26;;;;;;;2.30;1.20;;;;;;;;;;4981264;28;92394;-65
2023/01/02 07:40:52;;;;;;;2.55;1.27;;;;;;;;;;4985880;28;92892;-65
2023/01/02 07:43:19;;;;;;;2.55;1.30;;;;;;;;;;4973757;28;92232;-65
2023/01/02 07:45:45;;;;;;;3.40;1.20;;;;;;;;;;4983965;28;92020;-65
2023/01/02 07:48:16;;;;;;;2.53;1.10;;;;;;;;;;4984296;28;92505;-66
2023/01/02 07:50:42;;;;;;;4.00;1.10;;;;;;;;;;4984581;28;92378;-65
2023/01/02 07:53:09;;;;;;;2.10;1.23;;;;;;;;;;4982498;28;94570;-65
2023/01/02 07:55:35;;;;;;;2.75;1.38;;;;;;;;;;4984739;28;92249;-65
2023/01/02 07:58:01;;;;;;;2.40;1.20;;;;;;;;;;4983376;28;92470;-65
2023/01/02 08:00:28;;;;;;;2.08;1.20;;;;;;;;;;4984329;28;92758;-65
2023/01/02 08:02:54;;;;;;;1.92;1.10;;;;;;;;;;4987230;28;92688;-65
2023/01/02 08:05:21;;;;;;;2.78;1.15;;;;;;;;;;4984279;28;92766;-65
2023/01/02 08:07:47;;;;;;;1.83;1.10;;;;;;;;;;4984171;28;92143;-65
2023/01/02 08:10:14;;;;;;;2.08;1.30;;;;;;;;;;4984823;28;92830;-67
2023/01/02 08:12:40;;;;;;;3.13;1.40;;;;;;;;;;4987884;28;92961;-65
2023/01/02 08:15:07;;;;;;;2.08;1.17;;;;;;;;;;4984158;28;91951;-65
2023/01/02 08:17:33;;;;;;;2.10;1.13;;;;;;;;;;4982352;28;94766;-66
2023/01/02 08:20:00;;;;;;;2.72;1.48;;;;;;;;;;4984266;28;92582;-65
2023/01/02 08:22:33;;;;;;;3.83;1.40;;;;;;;;;;4983887;28;92077;-69
2023/01/02 08:24:59;;;;;;;2.30;1.20;;;;;;;;;;4986864;28;92824;-65
2023/01/02 08:27:26;;;;;;;1.67;1.05;;;;;;;;;;4983437;28;92455;-65
2023/01/02 08:29:52;;;;;;;1.92;1.10;;;;;;;;;;4983956;28;92382;-65
2023/01/02 08:32:19;;;;;;;2.30;1.00;;;;;;;;;;4983422;28;92800;-65
2023/01/02 08:34:45;;;;;;;2.97;1.33;;;;;;;;;;4999685;28;92196;-65
2023/01/02 08:37:12;;;;;;;1.90;1.20;;;;;;;;;;4983016;28;92298;-66
2023/01/02 08:39:38;;;;;;;1.67;1.00;;;;;;;;;;4983281;28;92769;-65
2023/01/02 08:42:05;;;;;;;2.55;1.25;;;;;;;;;;4981148;28;94474;-65
2023/01/02 08:44:33;;;;;;;2.72;1.33;;;;;;;;;;4983183;28;94811;-65
2023/01/02 08:47:00;;;;;;;1.50;0.90;;;;;;;;;;4985363;28;92917;-65
2023/01/02 08:49:26;;;;;;;2.55;1.40;;;;;;;;;;4983456;28;93437;-65
2023/01/02 08:51:53;;;;;;;2.70;1.30;;;;;;;;;;4982566;28;92586;-63
2023/01/02 08:54:19;;;;;;;1.88;1.10;;;;;;;;;;4983079;28;92063;-65
2023/01/02 08:56:45;;;;;;;3.67;1.20;;;;;;;;;;4982991;28;92882;-65
2023/01/02 08:59:12;;;;;;;2.45;1.27;;;;;;;;;;4983863;28;92063;-64
2023/01/02 09:01:39;;;;;;;2.08;1.00;;;;;;;;;;4982438;28;92106;-65
2023/01/02 09:04:07;;;;;;;2.75;1.20;;;;;;;;;;4983073;28;92384;-65
2023/01/02 09:06:38;;;;;;;2.97;1.30;;;;;;;;;;4980957;28;94913;-65
2023/01/02 09:09:05;;;;;;;2.05;1.20;;;;;;;;;;4984550;28;92228;-63
2023/01/02 09:11:38;;;;;;;2.28;1.20;;;;;;;;;;4982814;28;93003;-65
2023/01/02 09:14:05;;;;;;;1.52;1.10;;;;;;;;;;4968134;28;92399;-64
2023/01/02 09:16:31;;;;;;;1.77;1.08;;;;;;;;;;4982507;28;92385;-65
2023/01/02 09:18:58;;;;;;;2.35;1.30;;;;;;;;;;4982767;28;93007;-66
2023/01/02 09:21:26;;;;;;;1.92;1.23;;;;;;;;;;4982678;28;92563;-64
2023/01/02 09:23:53;;;;;;;2.83;1.25;;;;;;;;;;4983325;28;92573;-65
2023/01/02 09:26:19;;;;;;;2.63;1.20;;;;;;;;;;4982140;28;92867;-65
2023/01/02 09:28:46;;;;;;;3.17;1.00;;;;;;;;;;4982531;28;93551;-65
2023/01/02 09:31:14;;;;;;;2.00;1.08;;;;;;;;;;4983946;28;94850;-64
2023/01/02 09:33:41;;;;;;;1.60;1.10;;;;;;;;;;4982240;28;92257;-65
2023/01/02 09:36:08;;;;;;;1.70;1.20;;;;;;;;;;4982398;28;92585;-65
2023/01/02 09:38:35;;;;;;;1.63;1.10;;;;;;;;;;4980852;28;92775;-64
2023/01/02 09:41:09;;;;;;;2.78;1.08;;;;;;;;;;4981934;28;92566;-64
2023/01/02 09:43:39;;;;;;;2.75;1.20;;;;;;;;;;4982383;28;92970;-65
2023/01/02 09:46:06;;;;;;;1.85;1.10;;;;;;;;;;4981879;28;92872;-65
2023/01/02 09:48:34;;;;;;;2.58;1.40;;;;;;;;;;4983121;28;91599;-65
2023/01/02 09:51:02;;;;;;;2.28;0.95;;;;;;;;;;4985232;28;92357;-65
2023/01/02 09:53:33;;;;;;;2.17;1.13;;;;;;;;;;4982196;28;92479;-64
2023/01/02 09:56:02;;;;;;;1.73;0.93;;;;;;;;;;4980734;28;94660;-67
2023/01/02 09:58:30;;;;;;;2.97;1.10;;;;;;;;;;4981814;28;92847;-66
2023/01/02 10:00:57;;;;;;;3.65;1.10;;;;;;;;;;4981347;28;92495;-65
2023/01/02 10:03:42;;;;;;;1.88;1.10;;;;;;;;;;4981322;28;92490;-65
2023/01/02 10:06:15;;;;;;;1.60;1.00;;;;;;;;;;4981880;28;92726;-65
2023/01/02 10:08:42;;;;;;;;;;;;;;;;;;4982439;28;92514;-65
2023/01/02 10:11:27;;;;;;;1.95;1.13;;;;;;;;;;4982607;28;122236;-66
2023/01/02 10:13:56;;;;;;;1.52;1.10;;;;;;;;;;4987005;28;92312;-65
2023/01/02 10:16:48;;;;;;;1.70;1.10;;;;;;;;;;4981380;28;92357;-65
2023/01/02 10:19:38;;;;;;;1.60;1.02;;;;;;;;;;4982017;28;92464;-65
2023/01/02 10:22:06;;;;;;;1.75;1.10;;;;;;;;;;4972770;28;94828;-65
2023/01/02 10:24:36;;;;;;;2.13;1.10;;;;;;;;;;4981784;28;93974;-68
2023/01/02 10:27:03;;;;;;;1.63;1.10;;;;;;;;;;4981204;28;92306;-65
2023/01/02 10:29:36;;;;;;;1.13;0.90;;;;;;;;;;4981847;28;92031;-65
2023/01/02 10:32:04;;;;;;;1.73;0.98;;;;;;;;;;4975562;28;92843;-66
2023/01/02 10:34:54;;;;;;;2.40;1.05;;;;;;;;;;4996624;28;95091;-65
2023/01/02 10:37:20;;;;;;;1.88;1.10;;;;;;;;;;4980253;28;92479;-64
2023/01/02 10:39:48;;;;;;;1.85;0.90;;;;;;;;;;4981995;28;92735;-66
2023/01/02 10:42:14;;;;;;;1.85;0.90;;;;;;;;;;4981087;28;92501;-65
2023/01/02 10:44:42;;;;;;;1.25;1.00;;;;;;;;;;4981475;28;92294;-66
2023/01/02 10:47:31;;;;;;;1.98;0.90;;;;;;;;;;4979507;28;95255;-66
2023/01/02 10:49:58;;;;;;;1.95;1.02;;;;;;;;;;4981375;28;92399;-66
2023/01/02 10:53:00;;;;;;;2.50;1.20;;;;;;;;;;4979674;28;92984;-65
2023/01/02 10:55:40;;;;;;;2.33;0.90;;;;;;;;;;4939863;28;93799;-65
2023/01/02 10:58:20;;;;;;;1.00;0.90;;;;;;;;;;4973857;28;92845;-65
2023/01/02 11:00:47;;;;;;;2.65;1.27;;;;;;;;;;4983435;28;92603;-65
2023/01/02 11:03:13;;;;;;;;;;;;;;;;;;4981446;28;92285;-64
2023/01/02 11:05:44;;;;;;;2.20;1.10;;;;;;;;;;4982563;28;116385;-65
2023/01/02 11:08:12;;;;;;;1.77;1.15;;;;;;;;;;4977687;28;92878;-65
2023/01/02 11:10:38;;;;;;;1.95;0.90;;;;;;;;;;4974704;28;92467;-65
2023/01/02 11:13:15;;;;;;;1.58;1.00;;;;;;;;;;4983908;28;94351;-64
2023/01/02 11:15:49;;;;;;;2.55;1.38;;;;;;;;;;4982494;28;93669;-65
2023/01/02 11:18:18;;;;;;;2.58;1.00;;;;;;;;;;4984528;28;91998;-65
2023/01/02 11:20:49;;;;;;;1.70;0.95;;;;;;;;;;4984336;28;92408;-66
2023/01/02 11:23:16;;;;;;;2.03;1.00;;;;;;;;;;4987241;28;93385;-63
2023/01/02 11:25:43;;;;;;;1.63;0.75;;;;;;;;;;4984667;28;92778;-64
2023/01/02 11:28:18;;;;;;;3.25;1.00;;;;;;;;;;4984254;28;93181;-67
2023/01/02 11:30:45;;;;;;;2.50;1.10;;;;;;;;;;4984903;28;91547;-66
2023/01/02 11:33:12;;;;;;;;;;;;;;;;;;4984960;28;92238;-65
2023/01/02 11:35:44;;;;;;;1.90;0.88;;;;;;;;;;4984499;28;122656;-64
2023/01/02 11:38:18;;;;;;;2.08;1.10;;;;;;;;;;4982820;28;94793;-65
2023/01/02 11:40:57;;;;;;;1.52;1.10;;;;;;;;;;4984420;28;95290;-65
2023/01/02 11:43:48;;;;;;;2.20;1.00;;;;;;;;;;4983927;28;93454;-65
2023/01/02 11:46:35;;;;;;;2.17;1.00;;;;;;;;;;4987104;28;92319;-65
2023/01/02 11:49:12;;;;;;;2.40;0.90;;;;;;;;;;4984051;28;92876;-65
2023/01/02 11:51:39;;;;;;;1.65;0.98;;;;;;;;;;4984069;28;92340;-65
2023/01/02 11:54:10;;;;;;;1.73;1.00;;;;;;;;;;4982740;28;92404;-65
2023/01/02 11:56:38;;;;;;;1.60;0.90;;;;;;;;;;4984311;28;92484;-65
2023/01/02 11:59:05;;;;;;;2.00;0.90;;;;;;;;;;4984386;28;92527;-65
2023/01/02 12:01:45;;;;;;;1.75;0.80;;;;;;;;;;4982748;28;92554;-65
2023/01/02 12:04:12;;;;;;;2.35;0.90;;;;;;;;;;4982459;28;95220;-65
2023/01/02 12:06:38;;;;;;;2.13;0.80;;;;;;;;;;4986579;28;92910;-66
2023/01/02 12:09:20;;;;;;;2.35;1.10;;;;;;;;;;4983760;28;92787;-66
2023/01/02 12:12:05;;;;;;;2.55;1.00;;;;;;;;;;4987850;28;92354;-65
2023/01/02 12:14:31;;;;;;;1.60;1.00;;;;;;;;;;4984080;28;92477;-65
2023/01/02 12:17:10;;;;;;;1.45;1.00;;;;;;;;;;4983076;28;93171;-65
2023/01/02 12:19:45;;;;;;;1.40;0.90;;;;;;;;;;4999226;28;92367;-65
2023/01/02 12:22:21;;;;;;;1.63;0.90;;;;;;;;;;4983813;28;92309;-66
2023/01/02 12:25:06;;;;;;;1.33;0.77;;;;;;;;;;4974338;28;92757;-67
2023/01/02 12:27:46;;;;;;;1.42;0.70;;;;;;;;;;4981452;28;92435;-66
2023/01/02 12:30:15;;;;;;;1.27;0.80;;;;;;;;;;4985171;28;94376;-65
2023/01/02 12:32:50;;;;;;;1.77;0.90;;;;;;;;;;4983096;28;92171;-65
2023/01/02 12:35:16;;;;;;;1.60;0.75;;;;;;;;;;4983707;28;92478;-65
2023/01/02 12:37:52;;;;;;;2.55;1.10;;;;;;;;;;4982818;28;92798;-65
2023/01/02 12:40:33;;;;;;;2.83;1.05;;;;;;;;;;4983573;28;92160;-65
2023/01/02 12:43:03;;;;;;;2.88;1.00;;;;;;;;;;4991854;28;92347;-66
2023/01/02 12:45:43;;;;;;;1.48;0.80;;;;;;;;;;4982964;28;92817;-65
2023/01/02 12:48:12;;;;;;;2.28;0.88;;;;;;;;;;4983836;28;91493;-65
2023/01/02 12:50:48;;;;;;;3.28;1.40;;;;;;;;;;4998174;28;92402;-66
2023/01/02 12:53:15;;;;;;;2.28;1.08;;;;;;;;;;4985829;28;92733;-66
2023/01/02 12:55:54;;;;;;;1.27;1.00;;;;;;;;;;4996881;28;94411;-69
2023/01/02 12:58:33;;;;;;;1.48;0.80;;;;;;;;;;4981672;28;92830;-65
2023/01/02 13:01:12;;;;;;;3.47;0.90;;;;;;;;;;4982277;28;92099;-65
2023/01/02 13:03:48;;;;;;;1.83;1.00;;;;;;;;;;4983369;28;92784;-65
2023/01/02 13:06:14;;;;;;;1.13;0.90;;;;;;;;;;4982619;28;92773;-64
2023/01/02 13:09:08;;;;;;;2.75;0.90;;;;;;;;;;4983103;28;91996;-66
2023/01/02 13:11:50;;;;;;;2.00;1.00;;;;;;;;;;4982841;28;92533;-64
2023/01/02 13:14:18;;;;;;;2.17;1.00;;;;;;;;;;4971868;28;92100;-65
2023/01/02 13:16:49;;;;;;;2.25;1.00;;;;;;;;;;4985174;28;92271;-65
2023/01/02 13:19:22;;;;;;;3.50;0.98;;;;;;;;;;4982648;28;93185;-65
2023/01/02 13:22:02;;;;;;;1.90;1.00;;;;;;;;;;4981019;28;94348;-63
2023/01/02 13:24:29;;;;;;;2.17;0.82;;;;;;;;;;4981995;28;94518;-65
2023/01/02 13:26:57;;;;;;;2.65;0.90;;;;;;;;;;4982111;28;92837;-67
2023/01/02 13:29:23;;;;;;;;;;;;;;;;;;4983129;28;92273;-65
2023/01/02 13:31:54;;;;;;;2.35;0.95;;;;;;;;;;4982998;28;121848;-64
2023/01/02 13:34:25;;;;;;;1.65;1.00;;;;;;;;;;4982599;28;93127;-65
2023/01/02 13:37:07;;;;;;;3.00;1.13;;;;;;;;;;4981979;28;92634;-66
2023/01/02 13:39:40;;;;;;;2.17;1.17;;;;;;;;;;4985374;28;92752;-66
2023/01/02 13:44:54;;;;;;;2.42;1.20;;;;;;;;;;4982611;28;92448;-67
2023/01/02 13:47:20;;;;;;;;;;;;;;;;;;4980488;28;95594;-66
2023/01/02 13:49:56;;;;;;;2.88;1.10;;;;;;;;;;4984174;28;92054;-66
2023/01/02 13:52:22;;;;;;;2.70;1.20;;;;;;;;;;4982192;28;91990;-64
2023/01/02 13:55:07;;;;;;;3.55;1.00;;;;;;;;;;4982137;28;92661;-65
2023/01/02 13:57:34;;;;;;;2.00;1.10;;;;;;;;;;4982232;28;92925;-66
2023/01/02 14:00:02;;;;;;;3.25;1.35;;;;;;;;;;4983252;28;93071;-65
2023/01/02 14:02:37;;;;;;;2.25;0.93;;;;;;;;;;4980586;28;92322;-65
2023/01/02 14:05:22;;;;;;;2.85;1.10;;;;;;;;;;4982660;28;92490;-66
2023/01/02 14:07:48;;;;;;;1.48;1.00;;;;;;;;;;4981442;28;92844;-64
2023/01/02 14:10:17;;;;;;;2.88;0.90;;;;;;;;;;4982166;28;92477;-65
2023/01/02 14:12:53;;;;;;;2.13;1.00;;;;;;;;;;4984156;28;94722;-65
2023/01/02 14:15:24;;;;;;;2.28;1.10;;;;;;;;;;4981783;28;92889;-65
2023/01/02 14:17:59;;;;;;;3.08;1.20;;;;;;;;;;4981819;28;92585;-65
2023/01/02 14:20:27;;;;;;;1.77;1.13;;;;;;;;;;4995473;28;92251;-66
2023/01/02 14:22:57;;;;;;;2.22;1.35;;;;;;;;;;4983159;28;93233;-65
2023/01/02 14:25:23;;;;;;;3.03;1.20;;;;;;;;;;4981703;28;92518;-66
2023/01/02 14:27:55;;;;;;;1.85;1.20;;;;;;;;;;4981150;28;93225;-66
2023/01/02 14:30:41;;;;;;;3.38;1.15;;;;;;;;;;4982361;28;91308;-65
2023/01/02 14:33:14;;;;;;;1.85;1.15;;;;;;;;;;4981904;28;92377;-65
2023/01/02 14:35:49;;;;;;;2.63;1.10;;;;;;;;;;4980088;28;92789;-65
2023/01/02 14:38:21;;;;;;;2.85;1.13;;;;;;;;;;4979727;28;94435;-65
2023/01/02 14:40:48;;;;;;;1.77;1.00;;;;;;;;;;4981570;28;94645;-65
2023/01/02 14:43:30;;;;;;;2.40;1.10;;;;;;;;;;4981641;28;93533;-66
2023/01/02 14:46:15;;;;;;;3.80;1.40;;;;;;;;;;4984804;28;92330;-64
2023/01/02 14:48:49;;;;;;;3.83;1.35;;;;;;;;;;4996794;28;93105;-65
2023/01/02 14:51:30;;;;;;;3.15;1.30;;;;;;;;;;4988242;28;93356;-65
2023/01/02 14:54:00;;;;;;;2.33;1.13;;;;;;;;;;4988627;28;92403;-65
2023/01/02 14:56:30;;;;;;;2.17;1.17;;;;;;;;;;4986810;28;92583;-65
2023/01/02 14:58:57;;;;;;;2.35;1.10;;;;;;;;;;4988113;28;92606;-65
2023/01/02 15:01:26;;;;;;;2.53;1.20;;;;;;;;;;4987486;28;92742;-63
2023/01/02 15:04:13;;;;;;;3.72;1.30;;;;;;;;;;4978652;28;95157;-66
2023/01/02 15:06:44;;;;;;;3.00;1.30;;;;;;;;;;4987433;28;92559;-65